Flight Track Log - Related Links

Times and Time Zones

All times are in EDT time to prevent confusion due to time zone crossing. See the CES2368 flight status page for this flight to view local times or setup timezone preferences in your user account.

Time Position Orientation Groundspeed Altitude Reporting Facility
EDT Latitude Longitude Course Direction KTS MPH feet Rate Location/Type
Sun 06:00:00 AM 34.2373 108.0315 68° East  Level Estimated
Sun 06:01:00 AM 34.2639 108.1217 70° East  Level Estimated
Sun 06:02:00 AM 34.2904 108.2119 70° East  Level Estimated
Sun 06:03:00 AM 34.3168 108.3022 70° East  Level Estimated
Sun 06:04:00 AM 34.3432 108.3926 71° East  Level Estimated
Sun 06:05:00 AM 34.3695 108.4830 71° East  Level Estimated
Sun 06:06:00 AM 34.3957 108.5735 71° East  Level Estimated
Sun 06:07:00 AM 34.4219 108.6640 71° East  Level Estimated
Sun 06:08:00 AM 34.4471 108.7516 71° East  Level Estimated
Sun 06:09:00 AM 34.4471 108.7516 121° Southeast  Level Estimated
Sun 06:10:00 AM 34.4471 108.7516 121° Southeast  Level Estimated
Sun 06:11:00 AM 34.4471 108.7516 121° Southeast  Level Estimated
Sun 06:12:00 AM 34.4471 108.7516 121° Southeast  Level Estimated
Sun 06:13:00 AM 34.4471 108.7516 121° Southeast  Level Estimated
Sun 06:14:00 AM 34.4471 108.7516 121° Southeast  Level Estimated
Sun 06:15:00 AM 34.4471 108.7516 121° Southeast  Level Estimated
Sun 06:16:00 AM 34.4471 108.7516 121° Southeast  Level Estimated
Sun 06:17:00 AM 34.4471 108.7516 121° Southeast  Level Estimated
Sun 06:18:00 AM 34.4471 108.7516 121° Southeast  Level Estimated
Sun 06:19:00 AM 34.4471 108.7516 121° Southeast  Level Estimated
Sun 06:20:00 AM 34.4471 108.7516 121° Southeast  Level Estimated
Sun 06:21:00 AM 34.4471 108.7516 121° Southeast  Level Estimated
Sun 06:22:00 AM 34.4471 108.7516 121° Southeast  Level Estimated
Sun 06:23:00 AM 34.4471 108.7516 121° Southeast  Level Estimated
Sun 06:24:00 AM 34.4471 108.7516 121° Southeast  Level Estimated

Login

Don't have an account? Register now (free) for customized features, flight alerts, and more!